Terminal Aerodrome Forecast
Issued by NWS

Home | Current Version | Previous Version | Text Only | Print | Product List | Glossary On
Versions: 1 2 3 4 5 6 7 8 9 10 11 12 13 14 15 16 17 18 19 20 21 22 23 24 25 26 27 28 29 30 31 32 33 34 35 36 37 38 39 40 41 42 43
000
FTUS41 KCTP 272337
TAFUNV
TAF
KUNV 272337Z 2800/2824 23005KT P6SM VCTS BKN050 OVC100CB
      TEMPO 2800/2801 23012G24KT 2SM TSRA OVC025CB
     FM280100 23005KT P6SM VCTS BKN050 OVC100CB
      TEMPO 2802/2806 3SM BR OVC030
     FM280600 VRB03KT 5SM BR VCSH OVC025
     FM280900 26009KT P6SM VCSH OVC030
     FM281500 30011KT P6SM VCSH BKN040=

USA.gov is the U.S. government's official web portal to all federal, state and local government web resources and services.